DFOH weather

Hounde Airport
Hounde, Tui, Burkina Faso

Public forecast

Using degrees Celsius for public forecast. Weather courtesy of forecast.io.

METAR (pilot weather report)

Closest report is Bobo Dioulasso Airport, 51.7 nm (95.7 km) WSW. Retrieved 2019/03/23 22:00 UTC (20 minutes ago):

DFOO 232200Z 01003KT CAVOK 30/09 Q1012

TAF (pilot weather forecast)

Closest forecast is Bobo Dioulasso Airport, 51.7 nm (95.7 km) WSW. Retrieved 2019/03/23 18:21 UTC (4 hours ago):

TAF DFOO 231700Z 2318/2418 03008KT 8000 NSC